sensor_id;sensor_type;location;lat;lon;timestamp;temperature;humidity
21770;DHT22;11046;49.558;8.674;2022-11-02T00:00:43;10.00;97.70
21770;DHT22;11046;49.558;8.674;2022-11-02T00:03:44;10.10;97.70
21770;DHT22;11046;49.558;8.674;2022-11-02T00:06:45;10.10;97.70
21770;DHT22;11046;49.558;8.674;2022-11-02T00:09:45;10.20;97.70
21770;DHT22;11046;49.558;8.674;2022-11-02T00:12:46;10.30;97.60
21770;DHT22;11046;49.558;8.674;2022-11-02T00:15:47;10.20;97.50
21770;DHT22;11046;49.558;8.674;2022-11-02T00:18:50;10.20;97.50
21770;DHT22;11046;49.558;8.674;2022-11-02T00:21:53;10.30;97.60
21770;DHT22;11046;49.558;8.674;2022-11-02T00:24:55;10.30;97.50
21770;DHT22;11046;49.558;8.674;2022-11-02T00:27:56;10.40;97.50
21770;DHT22;11046;49.558;8.674;2022-11-02T00:30:56;10.40;97.40
21770;DHT22;11046;49.558;8.674;2022-11-02T00:33:57;10.40;97.30
21770;DHT22;11046;49.558;8.674;2022-11-02T00:36:57;10.30;97.20
21770;DHT22;11046;49.558;8.674;2022-11-02T00:39:58;10.20;97.30
21770;DHT22;11046;49.558;8.674;2022-11-02T00:42:59;10.20;97.40
21770;DHT22;11046;49.558;8.674;2022-11-02T00:45:59;10.10;97.50
21770;DHT22;11046;49.558;8.674;2022-11-02T00:49:00;10.10;97.60
21770;DHT22;11046;49.558;8.674;2022-11-02T00:52:02;10.00;97.60
21770;DHT22;11046;49.558;8.674;2022-11-02T00:55:03;10.10;97.70
21770;DHT22;11046;49.558;8.674;2022-11-02T00:58:04;10.00;97.70
21770;DHT22;11046;49.558;8.674;2022-11-02T01:01:06;10.10;97.70
21770;DHT22;11046;49.558;8.674;2022-11-02T01:04:06;10.20;97.70
21770;DHT22;11046;49.558;8.674;2022-11-02T01:07:07;10.30;97.60
21770;DHT22;11046;49.558;8.674;2022-11-02T01:10:09;10.30;97.50
21770;DHT22;11046;49.558;8.674;2022-11-02T01:13:10;10.40;97.40
21770;DHT22;11046;49.558;8.674;2022-11-02T01:16:13;10.50;97.20
21770;DHT22;11046;49.558;8.674;2022-11-02T01:19:14;10.50;97.10
21770;DHT22;11046;49.558;8.674;2022-11-02T01:22:15;10.50;97.10
21770;DHT22;11046;49.558;8.674;2022-11-02T01:25:15;10.50;97.00
21770;DHT22;11046;49.558;8.674;2022-11-02T01:28:16;10.40;97.00
21770;DHT22;11046;49.558;8.674;2022-11-02T01:31:17;10.40;97.20
21770;DHT22;11046;49.558;8.674;2022-11-02T01:34:18;10.50;97.20
21770;DHT22;11046;49.558;8.674;2022-11-02T01:37:18;10.50;97.20
21770;DHT22;11046;49.558;8.674;2022-11-02T01:40:19;10.50;97.20
21770;DHT22;11046;49.558;8.674;2022-11-02T01:46:37;10.50;97.20
21770;DHT22;11046;49.558;8.674;2022-11-02T01:49:42;10.50;97.30
21770;DHT22;11046;49.558;8.674;2022-11-02T01:52:43;10.50;97.30
21770;DHT22;11046;49.558;8.674;2022-11-02T01:55:44;10.60;97.30
21770;DHT22;11046;49.558;8.674;2022-11-02T01:58:47;10.70;97.40
21770;DHT22;11046;49.558;8.674;2022-11-02T02:01:51;10.70;97.40
21770;DHT22;11046;49.558;8.674;2022-11-02T02:04:59;10.80;97.40
21770;DHT22;11046;49.558;8.674;2022-11-02T02:08:04;10.80;97.30
21770;DHT22;11046;49.558;8.674;2022-11-02T02:14:27;10.90;97.30
21770;DHT22;11046;49.558;8.674;2022-11-02T02:17:49;11.00;97.30
21770;DHT22;11046;49.558;8.674;2022-11-02T02:24:57;10.90;97.40
21770;DHT22;11046;49.558;8.674;2022-11-02T02:27:58;10.90;97.40
21770;DHT22;11046;49.558;8.674;2022-11-02T02:34:53;10.90;97.30
21770;DHT22;11046;49.558;8.674;2022-11-02T02:37:59;10.90;97.30
21770;DHT22;11046;49.558;8.674;2022-11-02T02:44:15;10.90;97.50
21770;DHT22;11046;49.558;8.674;2022-11-02T02:47:21;10.90;97.50
21770;DHT22;11046;49.558;8.674;2022-11-02T02:50:26;10.90;97.50
21770;DHT22;11046;49.558;8.674;2022-11-02T02:53:42;10.90;97.60
21770;DHT22;11046;49.558;8.674;2022-11-02T02:56:50;10.90;97.60
21770;DHT22;11046;49.558;8.674;2022-11-02T02:59:52;10.90;97.60
21770;DHT22;11046;49.558;8.674;2022-11-02T03:02:55;10.90;97.60
21770;DHT22;11046;49.558;8.674;2022-11-02T03:06:02;10.90;97.60
21770;DHT22;11046;49.558;8.674;2022-11-02T03:09:11;11.00;97.60
21770;DHT22;11046;49.558;8.674;2022-11-02T03:15:36;10.90;97.60
21770;DHT22;11046;49.558;8.674;2022-11-02T03:18:52;11.00;97.60
21770;DHT22;11046;49.558;8.674;2022-11-02T03:22:00;11.00;97.50
21770;DHT22;11046;49.558;8.674;2022-11-02T03:31:38;10.90;97.50
21770;DHT22;11046;49.558;8.674;2022-11-02T03:34:48;10.90;97.50
21770;DHT22;11046;49.558;8.674;2022-11-02T03:38:31;10.90;97.50
21770;DHT22;11046;49.558;8.674;2022-11-02T03:41:36;10.90;97.50
21770;DHT22;11046;49.558;8.674;2022-11-02T03:44:39;10.90;97.50
21770;DHT22;11046;49.558;8.674;2022-11-02T03:47:46;10.90;97.40
21770;DHT22;11046;49.558;8.674;2022-11-02T03:50:49;10.90;97.40
21770;DHT22;11046;49.558;8.674;2022-11-02T03:54:03;10.90;97.40
21770;DHT22;11046;49.558;8.674;2022-11-02T03:57:08;10.90;97.50
21770;DHT22;11046;49.558;8.674;2022-11-02T04:00:14;10.90;97.50
21770;DHT22;11046;49.558;8.674;2022-11-02T04:03:19;11.00;97.40
21770;DHT22;11046;49.558;8.674;2022-11-02T04:06:21;11.00;97.40
21770;DHT22;11046;49.558;8.674;2022-11-02T04:09:23;11.10;97.30
21770;DHT22;11046;49.558;8.674;2022-11-02T04:12:23;11.20;97.30
21770;DHT22;11046;49.558;8.674;2022-11-02T04:15:44;11.20;97.20
21770;DHT22;11046;49.558;8.674;2022-11-02T04:18:45;11.20;97.30
21770;DHT22;11046;49.558;8.674;2022-11-02T04:22:04;11.20;97.30
21770;DHT22;11046;49.558;8.674;2022-11-02T04:25:28;11.20;97.30
21770;DHT22;11046;49.558;8.674;2022-11-02T04:28:48;11.20;97.30
21770;DHT22;11046;49.558;8.674;2022-11-02T04:31:48;11.30;97.30
21770;DHT22;11046;49.558;8.674;2022-11-02T04:34:49;11.30;97.30
21770;DHT22;11046;49.558;8.674;2022-11-02T04:37:51;11.30;97.20
21770;DHT22;11046;49.558;8.674;2022-11-02T04:41:15;11.30;97.10
21770;DHT22;11046;49.558;8.674;2022-11-02T04:44:36;11.30;97.10
21770;DHT22;11046;49.558;8.674;2022-11-02T04:47:40;11.30;97.20
21770;DHT22;11046;49.558;8.674;2022-11-02T04:50:41;11.30;97.10
21770;DHT22;11046;49.558;8.674;2022-11-02T04:53:42;11.30;97.10
21770;DHT22;11046;49.558;8.674;2022-11-02T04:56:44;11.40;97.20
21770;DHT22;11046;49.558;8.674;2022-11-02T04:59:45;11.40;97.10
21770;DHT22;11046;49.558;8.674;2022-11-02T05:02:48;11.40;97.20
21770;DHT22;11046;49.558;8.674;2022-11-02T05:05:53;11.30;97.20
21770;DHT22;11046;49.558;8.674;2022-11-02T05:08:55;11.40;97.20
21770;DHT22;11046;49.558;8.674;2022-11-02T05:11:57;11.30;97.20
21770;DHT22;11046;49.558;8.674;2022-11-02T05:14:59;11.40;97.20
21770;DHT22;11046;49.558;8.674;2022-11-02T05:18:00;11.40;97.10
21770;DHT22;11046;49.558;8.674;2022-11-02T05:21:03;11.40;97.10
21770;DHT22;11046;49.558;8.674;2022-11-02T05:24:05;11.40;97.10
21770;DHT22;11046;49.558;8.674;2022-11-02T05:27:09;11.40;97.10
21770;DHT22;11046;49.558;8.674;2022-11-02T05:30:12;11.50;97.10
21770;DHT22;11046;49.558;8.674;2022-11-02T05:33:14;11.50;97.10
21770;DHT22;11046;49.558;8.674;2022-11-02T05:36:15;11.50;97.00
21770;DHT22;11046;49.558;8.674;2022-11-02T05:39:19;11.50;97.10
21770;DHT22;11046;49.558;8.674;2022-11-02T05:42:20;11.40;97.10
21770;DHT22;11046;49.558;8.674;2022-11-02T05:45:21;11.40;97.10
21770;DHT22;11046;49.558;8.674;2022-11-02T05:48:23;11.40;97.10
21770;DHT22;11046;49.558;8.674;2022-11-02T05:51:24;11.30;97.50
21770;DHT22;11046;49.558;8.674;2022-11-02T05:54:24;11.30;97.20
21770;DHT22;11046;49.558;8.674;2022-11-02T05:57:25;11.30;97.20
21770;DHT22;11046;49.558;8.674;2022-11-02T06:00:25;11.20;97.20
21770;DHT22;11046;49.558;8.674;2022-11-02T06:03:26;11.20;97.20
21770;DHT22;11046;49.558;8.674;2022-11-02T06:06:27;11.10;97.30
21770;DHT22;11046;49.558;8.674;2022-11-02T06:09:27;11.00;97.30
21770;DHT22;11046;49.558;8.674;2022-11-02T06:12:28;11.00;97.30
21770;DHT22;11046;49.558;8.674;2022-11-02T06:15:30;11.00;97.40
21770;DHT22;11046;49.558;8.674;2022-11-02T06:18:31;11.00;97.40
21770;DHT22;11046;49.558;8.674;2022-11-02T06:21:32;10.80;97.50
21770;DHT22;11046;49.558;8.674;2022-11-02T06:24:32;10.80;97.60
21770;DHT22;11046;49.558;8.674;2022-11-02T06:27:33;10.80;97.60
21770;DHT22;11046;49.558;8.674;2022-11-02T06:30:34;10.80;97.70
21770;DHT22;11046;49.558;8.674;2022-11-02T06:33:35;10.80;97.80
21770;DHT22;11046;49.558;8.674;2022-11-02T06:36:35;10.80;97.80
21770;DHT22;11046;49.558;8.674;2022-11-02T06:39:36;10.80;97.70
21770;DHT22;11046;49.558;8.674;2022-11-02T06:42:37;10.80;97.70
21770;DHT22;11046;49.558;8.674;2022-11-02T06:45:38;10.80;97.80
21770;DHT22;11046;49.558;8.674;2022-11-02T06:48:38;10.80;97.90
21770;DHT22;11046;49.558;8.674;2022-11-02T06:51:39;10.80;97.80
21770;DHT22;11046;49.558;8.674;2022-11-02T06:54:39;10.80;97.70
21770;DHT22;11046;49.558;8.674;2022-11-02T06:57:41;10.80;97.80
21770;DHT22;11046;49.558;8.674;2022-11-02T07:00:42;10.80;97.80
21770;DHT22;11046;49.558;8.674;2022-11-02T07:03:42;10.80;97.80
21770;DHT22;11046;49.558;8.674;2022-11-02T07:06:43;10.80;97.90
21770;DHT22;11046;49.558;8.674;2022-11-02T07:09:43;10.80;97.90
21770;DHT22;11046;49.558;8.674;2022-11-02T07:12:44;10.80;98.00
21770;DHT22;11046;49.558;8.674;2022-11-02T07:15:45;10.80;98.00
21770;DHT22;11046;49.558;8.674;2022-11-02T07:18:45;10.80;98.00
21770;DHT22;11046;49.558;8.674;2022-11-02T07:21:46;10.80;98.00
21770;DHT22;11046;49.558;8.674;2022-11-02T07:24:46;10.80;98.00
21770;DHT22;11046;49.558;8.674;2022-11-02T07:27:47;10.80;98.00
21770;DHT22;11046;49.558;8.674;2022-11-02T07:30:48;10.90;98.10
21770;DHT22;11046;49.558;8.674;2022-11-02T07:33:48;10.80;98.00
21770;DHT22;11046;49.558;8.674;2022-11-02T07:36:49;10.80;98.10
21770;DHT22;11046;49.558;8.674;2022-11-02T07:39:49;10.90;98.20
21770;DHT22;11046;49.558;8.674;2022-11-02T07:42:50;10.90;98.20
21770;DHT22;11046;49.558;8.674;2022-11-02T07:45:54;10.90;98.10
21770;DHT22;11046;49.558;8.674;2022-11-02T07:48:55;10.90;98.20
21770;DHT22;11046;49.558;8.674;2022-11-02T07:51:56;11.00;98.30
21770;DHT22;11046;49.558;8.674;2022-11-02T07:54:57;11.10;98.30
21770;DHT22;11046;49.558;8.674;2022-11-02T07:57:59;11.30;98.30
21770;DHT22;11046;49.558;8.674;2022-11-02T08:01:00;11.50;98.30
21770;DHT22;11046;49.558;8.674;2022-11-02T08:04:01;11.70;98.10
21770;DHT22;11046;49.558;8.674;2022-11-02T08:07:02;11.90;98.10
21770;DHT22;11046;49.558;8.674;2022-11-02T08:10:02;12.00;97.80
21770;DHT22;11046;49.558;8.674;2022-11-02T08:13:03;12.20;97.60
21770;DHT22;11046;49.558;8.674;2022-11-02T08:16:04;12.40;97.50
21770;DHT22;11046;49.558;8.674;2022-11-02T08:19:04;12.50;97.30
21770;DHT22;11046;49.558;8.674;2022-11-02T08:22:05;12.70;97.10
21770;DHT22;11046;49.558;8.674;2022-11-02T08:25:06;12.80;97.00
21770;DHT22;11046;49.558;8.674;2022-11-02T08:28:31;13.00;96.70
21770;DHT22;11046;49.558;8.674;2022-11-02T08:31:31;13.10;96.60
21770;DHT22;11046;49.558;8.674;2022-11-02T08:34:32;13.30;96.40
21770;DHT22;11046;49.558;8.674;2022-11-02T08:37:32;13.30;96.20
21770;DHT22;11046;49.558;8.674;2022-11-02T08:40:34;13.40;96.10
21770;DHT22;11046;49.558;8.674;2022-11-02T08:43:35;13.50;95.90
21770;DHT22;11046;49.558;8.674;2022-11-02T08:46:35;13.50;95.80
21770;DHT22;11046;49.558;8.674;2022-11-02T08:49:36;13.70;95.80
21770;DHT22;11046;49.558;8.674;2022-11-02T08:52:37;13.90;95.50
21770;DHT22;11046;49.558;8.674;2022-11-02T08:55:38;13.90;95.20
21770;DHT22;11046;49.558;8.674;2022-11-02T08:58:38;13.90;95.30
21770;DHT22;11046;49.558;8.674;2022-11-02T09:01:39;14.20;95.10
21770;DHT22;11046;49.558;8.674;2022-11-02T09:04:40;14.20;94.90
21770;DHT22;11046;49.558;8.674;2022-11-02T09:07:40;14.20;94.90
21770;DHT22;11046;49.558;8.674;2022-11-02T09:10:41;14.30;94.70
21770;DHT22;11046;49.558;8.674;2022-11-02T09:13:42;14.30;94.80
21770;DHT22;11046;49.558;8.674;2022-11-02T09:16:42;14.50;94.80
21770;DHT22;11046;49.558;8.674;2022-11-02T09:19:43;14.70;94.70
21770;DHT22;11046;49.558;8.674;2022-11-02T09:22:44;14.70;94.40
21770;DHT22;11046;49.558;8.674;2022-11-02T09:25:45;14.90;94.30
21770;DHT22;11046;49.558;8.674;2022-11-02T09:28:46;14.90;94.30
21770;DHT22;11046;49.558;8.674;2022-11-02T09:31:46;15.10;94.20
21770;DHT22;11046;49.558;8.674;2022-11-02T09:34:48;15.20;94.00
21770;DHT22;11046;49.558;8.674;2022-11-02T09:37:50;15.40;93.80
21770;DHT22;11046;49.558;8.674;2022-11-02T09:41:02;15.50;93.60
21770;DHT22;11046;49.558;8.674;2022-11-02T09:44:37;15.50;93.30
21770;DHT22;11046;49.558;8.674;2022-11-02T09:47:44;15.60;93.20
21770;DHT22;11046;49.558;8.674;2022-11-02T09:51:03;15.50;93.20
21770;DHT22;11046;49.558;8.674;2022-11-02T09:54:25;15.40;93.20
21770;DHT22;11046;49.558;8.674;2022-11-02T09:57:29;15.30;93.30
21770;DHT22;11046;49.558;8.674;2022-11-02T10:00:33;15.40;93.90
21770;DHT22;11046;49.558;8.674;2022-11-02T10:14:31;15.80;93.00
21770;DHT22;11046;49.558;8.674;2022-11-02T10:17:36;15.90;92.10
21770;DHT22;11046;49.558;8.674;2022-11-02T10:20:47;15.90;91.20
21770;DHT22;11046;49.558;8.674;2022-11-02T10:23:52;16.00;90.40
21770;DHT22;11046;49.558;8.674;2022-11-02T10:26:58;16.00;90.00
21770;DHT22;11046;49.558;8.674;2022-11-02T10:30:08;16.00;89.20
21770;DHT22;11046;49.558;8.674;2022-11-02T10:33:15;16.10;88.30
21770;DHT22;11046;49.558;8.674;2022-11-02T10:36:20;16.10;88.30
21770;DHT22;11046;49.558;8.674;2022-11-02T10:39:34;16.10;87.50
21770;DHT22;11046;49.558;8.674;2022-11-02T10:46:07;16.00;86.60
21770;DHT22;11046;49.558;8.674;2022-11-02T10:49:35;16.10;85.30
21770;DHT22;11046;49.558;8.674;2022-11-02T10:52:44;16.30;85.60
21770;DHT22;11046;49.558;8.674;2022-11-02T10:59:14;16.10;84.70
21770;DHT22;11046;49.558;8.674;2022-11-02T11:02:16;16.20;83.20
21770;DHT22;11046;49.558;8.674;2022-11-02T11:05:18;16.10;83.70
21770;DHT22;11046;49.558;8.674;2022-11-02T11:08:36;16.10;83.30
21770;DHT22;11046;49.558;8.674;2022-11-02T11:11:38;16.10;82.10
21770;DHT22;11046;49.558;8.674;2022-11-02T11:14:45;16.20;82.30
21770;DHT22;11046;49.558;8.674;2022-11-02T11:17:46;16.30;81.30
21770;DHT22;11046;49.558;8.674;2022-11-02T11:20:47;16.30;82.00
21770;DHT22;11046;49.558;8.674;2022-11-02T11:24:17;16.40;81.10
21770;DHT22;11046;49.558;8.674;2022-11-02T11:27:20;16.40;80.00
21770;DHT22;11046;49.558;8.674;2022-11-02T11:33:31;16.30;78.70
21770;DHT22;11046;49.558;8.674;2022-11-02T11:36:34;16.20;79.10
21770;DHT22;11046;49.558;8.674;2022-11-02T11:39:37;16.10;78.80
21770;DHT22;11046;49.558;8.674;2022-11-02T11:42:41;16.10;78.50
21770;DHT22;11046;49.558;8.674;2022-11-02T11:46:02;16.10;78.60
21770;DHT22;11046;49.558;8.674;2022-11-02T11:49:04;16.10;78.80
21770;DHT22;11046;49.558;8.674;2022-11-02T11:52:05;16.00;79.00
21770;DHT22;11046;49.558;8.674;2022-11-02T11:55:28;16.00;79.00
21770;DHT22;11046;49.558;8.674;2022-11-02T11:58:32;16.00;78.60
21770;DHT22;11046;49.558;8.674;2022-11-02T12:01:39;16.00;78.40
21770;DHT22;11046;49.558;8.674;2022-11-02T12:04:40;16.00;77.70
21770;DHT22;11046;49.558;8.674;2022-11-02T12:11:06;16.10;77.40
21770;DHT22;11046;49.558;8.674;2022-11-02T12:14:22;16.10;78.20
21770;DHT22;11046;49.558;8.674;2022-11-02T12:21:03;16.30;77.50
21770;DHT22;11046;49.558;8.674;2022-11-02T12:24:19;16.50;76.80
21770;DHT22;11046;49.558;8.674;2022-11-02T12:37:10;16.60;75.60
21770;DHT22;11046;49.558;8.674;2022-11-02T12:43:47;16.60;74.60
21770;DHT22;11046;49.558;8.674;2022-11-02T12:50:42;16.60;73.60
21770;DHT22;11046;49.558;8.674;2022-11-02T12:53:52;16.60;73.00
21770;DHT22;11046;49.558;8.674;2022-11-02T12:56:54;16.70;73.20
21770;DHT22;11046;49.558;8.674;2022-11-02T13:00:00;16.70;73.00
21770;DHT22;11046;49.558;8.674;2022-11-02T13:06:39;16.60;72.00
21770;DHT22;11046;49.558;8.674;2022-11-02T13:09:50;16.40;72.10
21770;DHT22;11046;49.558;8.674;2022-11-02T13:12:57;16.30;72.60
21770;DHT22;11046;49.558;8.674;2022-11-02T13:15:59;16.20;73.10
21770;DHT22;11046;49.558;8.674;2022-11-02T13:19:01;16.20;72.80
21770;DHT22;11046;49.558;8.674;2022-11-02T13:22:03;16.20;72.30
21770;DHT22;11046;49.558;8.674;2022-11-02T13:25:35;16.10;71.80
21770;DHT22;11046;49.558;8.674;2022-11-02T13:28:46;16.20;70.70
21770;DHT22;11046;49.558;8.674;2022-11-02T13:32:14;16.00;70.80
21770;DHT22;11046;49.558;8.674;2022-11-02T13:35:32;16.00;70.20
21770;DHT22;11046;49.558;8.674;2022-11-02T13:38:38;15.90;69.70
21770;DHT22;11046;49.558;8.674;2022-11-02T13:45:19;15.90;69.60
21770;DHT22;11046;49.558;8.674;2022-11-02T13:48:39;15.90;70.00
21770;DHT22;11046;49.558;8.674;2022-11-02T13:52:07;15.70;69.50
21770;DHT22;11046;49.558;8.674;2022-11-02T13:55:17;15.70;69.50
21770;DHT22;11046;49.558;8.674;2022-11-02T13:58:29;15.60;69.80
21770;DHT22;11046;49.558;8.674;2022-11-02T14:01:32;15.60;70.00
21770;DHT22;11046;49.558;8.674;2022-11-02T14:04:37;15.50;70.20
21770;DHT22;11046;49.558;8.674;2022-11-02T14:07:39;15.50;70.10
21770;DHT22;11046;49.558;8.674;2022-11-02T14:10:40;15.50;70.10
21770;DHT22;11046;49.558;8.674;2022-11-02T14:19:52;15.30;70.10
21770;DHT22;11046;49.558;8.674;2022-11-02T14:26:30;15.30;70.10
21770;DHT22;11046;49.558;8.674;2022-11-02T14:32:54;15.20;71.10
21770;DHT22;11046;49.558;8.674;2022-11-02T14:46:45;15.00;71.60
21770;DHT22;11046;49.558;8.674;2022-11-02T14:49:51;15.00;71.80
21770;DHT22;11046;49.558;8.674;2022-11-02T14:53:00;14.90;72.10
21770;DHT22;11046;49.558;8.674;2022-11-02T14:56:03;14.90;72.40
21770;DHT22;11046;49.558;8.674;2022-11-02T14:59:03;14.90;72.60
21770;DHT22;11046;49.558;8.674;2022-11-02T15:02:18;14.90;72.70
21770;DHT22;11046;49.558;8.674;2022-11-02T15:05:25;14.80;72.90
21770;DHT22;11046;49.558;8.674;2022-11-02T15:08:30;14.70;73.40
21770;DHT22;11046;49.558;8.674;2022-11-02T15:11:55;14.60;73.50
21770;DHT22;11046;49.558;8.674;2022-11-02T15:15:34;14.60;73.90
21770;DHT22;11046;49.558;8.674;2022-11-02T15:18:36;14.70;73.80
21770;DHT22;11046;49.558;8.674;2022-11-02T15:21:37;14.60;74.20
21770;DHT22;11046;49.558;8.674;2022-11-02T15:24:38;14.50;74.50
21770;DHT22;11046;49.558;8.674;2022-11-02T15:27:41;14.50;74.90
21770;DHT22;11046;49.558;8.674;2022-11-02T15:30:45;14.40;75.10
21770;DHT22;11046;49.558;8.674;2022-11-02T15:33:56;14.30;75.10
21770;DHT22;11046;49.558;8.674;2022-11-02T15:36:59;14.30;75.30
21770;DHT22;11046;49.558;8.674;2022-11-02T15:40:02;14.20;75.50
21770;DHT22;11046;49.558;8.674;2022-11-02T16:03:00;13.50;77.90
21770;DHT22;11046;49.558;8.674;2022-11-02T16:06:02;13.30;78.30
21770;DHT22;11046;49.558;8.674;2022-11-02T16:12:23;13.00;80.00
21770;DHT22;11046;49.558;8.674;2022-11-02T16:15:24;12.80;80.30
21770;DHT22;11046;49.558;8.674;2022-11-02T16:18:28;12.80;80.80
21770;DHT22;11046;49.558;8.674;2022-11-02T16:21:29;12.70;81.20
21770;DHT22;11046;49.558;8.674;2022-11-02T16:24:30;12.60;81.60
21770;DHT22;11046;49.558;8.674;2022-11-02T16:27:36;12.40;82.10
21770;DHT22;11046;49.558;8.674;2022-11-02T16:30:37;12.30;82.90
21770;DHT22;11046;49.558;8.674;2022-11-02T16:33:39;12.30;83.10
21770;DHT22;11046;49.558;8.674;2022-11-02T16:36:40;12.20;83.70
21770;DHT22;11046;49.558;8.674;2022-11-02T16:39:44;12.00;84.20
21770;DHT22;11046;49.558;8.674;2022-11-02T16:42:51;11.90;84.80
21770;DHT22;11046;49.558;8.674;2022-11-02T16:45:58;11.80;85.30
21770;DHT22;11046;49.558;8.674;2022-11-02T16:52:20;11.60;86.00
21770;DHT22;11046;49.558;8.674;2022-11-02T16:55:40;11.60;86.90
21770;DHT22;11046;49.558;8.674;2022-11-02T16:58:47;11.40;87.10
21770;DHT22;11046;49.558;8.674;2022-11-02T17:01:48;11.40;87.20
21770;DHT22;11046;49.558;8.674;2022-11-02T17:04:49;11.30;87.30
21770;DHT22;11046;49.558;8.674;2022-11-02T17:07:59;11.30;87.70
21770;DHT22;11046;49.558;8.674;2022-11-02T17:11:04;11.20;88.20
21770;DHT22;11046;49.558;8.674;2022-11-02T17:14:09;11.10;88.10
21770;DHT22;11046;49.558;8.674;2022-11-02T17:20:22;10.90;88.80
21770;DHT22;11046;49.558;8.674;2022-11-02T17:23:32;10.90;88.80
21770;DHT22;11046;49.558;8.674;2022-11-02T17:26:35;10.80;89.30
21770;DHT22;11046;49.558;8.674;2022-11-02T17:29:38;10.70;89.50
21770;DHT22;11046;49.558;8.674;2022-11-02T17:32:41;10.80;89.60
21770;DHT22;11046;49.558;8.674;2022-11-02T17:35:47;10.80;89.50
21770;DHT22;11046;49.558;8.674;2022-11-02T17:38:48;10.70;89.80
21770;DHT22;11046;49.558;8.674;2022-11-02T17:41:52;10.60;89.90
21770;DHT22;11046;49.558;8.674;2022-11-02T17:45:28;10.50;90.10
21770;DHT22;11046;49.558;8.674;2022-11-02T17:48:29;10.50;90.20
21770;DHT22;11046;49.558;8.674;2022-11-02T17:51:30;10.50;90.10
21770;DHT22;11046;49.558;8.674;2022-11-02T17:54:30;10.40;90.20
21770;DHT22;11046;49.558;8.674;2022-11-02T17:57:31;10.40;90.40
21770;DHT22;11046;49.558;8.674;2022-11-02T18:00:32;10.30;90.50
21770;DHT22;11046;49.558;8.674;2022-11-02T18:03:34;10.30;90.60
21770;DHT22;11046;49.558;8.674;2022-11-02T18:06:34;10.20;90.70
21770;DHT22;11046;49.558;8.674;2022-11-02T18:09:35;10.20;90.80
21770;DHT22;11046;49.558;8.674;2022-11-02T18:12:35;10.10;91.00
21770;DHT22;11046;49.558;8.674;2022-11-02T18:15:36;10.10;91.00
21770;DHT22;11046;49.558;8.674;2022-11-02T18:18:36;10.10;91.10
21770;DHT22;11046;49.558;8.674;2022-11-02T18:21:37;10.00;91.20
21770;DHT22;11046;49.558;8.674;2022-11-02T18:24:37;9.90;91.30
21770;DHT22;11046;49.558;8.674;2022-11-02T18:27:38;9.90;91.40
21770;DHT22;11046;49.558;8.674;2022-11-02T18:30:42;9.80;91.60
21770;DHT22;11046;49.558;8.674;2022-11-02T18:33:43;9.90;91.70
21770;DHT22;11046;49.558;8.674;2022-11-02T18:36:44;9.90;91.60
21770;DHT22;11046;49.558;8.674;2022-11-02T18:39:45;9.90;91.60
21770;DHT22;11046;49.558;8.674;2022-11-02T18:42:46;9.90;91.60
21770;DHT22;11046;49.558;8.674;2022-11-02T18:45:46;9.90;91.70
21770;DHT22;11046;49.558;8.674;2022-11-02T18:48:47;10.00;91.80
21770;DHT22;11046;49.558;8.674;2022-11-02T18:51:48;10.00;91.70
21770;DHT22;11046;49.558;8.674;2022-11-02T18:54:48;9.90;91.70
21770;DHT22;11046;49.558;8.674;2022-11-02T18:57:49;9.80;91.80
21770;DHT22;11046;49.558;8.674;2022-11-02T19:00:50;9.80;91.90
21770;DHT22;11046;49.558;8.674;2022-11-02T19:03:52;9.70;92.00
21770;DHT22;11046;49.558;8.674;2022-11-02T19:06:53;9.70;92.00
21770;DHT22;11046;49.558;8.674;2022-11-02T19:10:12;9.60;92.00
21770;DHT22;11046;49.558;8.674;2022-11-02T19:13:13;9.50;92.10
21770;DHT22;11046;49.558;8.674;2022-11-02T19:16:14;9.40;92.30
21770;DHT22;11046;49.558;8.674;2022-11-02T19:19:14;9.40;92.50
21770;DHT22;11046;49.558;8.674;2022-11-02T19:22:20;9.30;92.60
21770;DHT22;11046;49.558;8.674;2022-11-02T19:25:21;9.40;92.60
21770;DHT22;11046;49.558;8.674;2022-11-02T19:28:21;9.40;92.70
21770;DHT22;11046;49.558;8.674;2022-11-02T19:31:22;9.50;92.80
21770;DHT22;11046;49.558;8.674;2022-11-02T19:34:22;9.70;92.70
21770;DHT22;11046;49.558;8.674;2022-11-02T19:37:23;9.80;92.70
21770;DHT22;11046;49.558;8.674;2022-11-02T19:40:24;9.80;92.70
21770;DHT22;11046;49.558;8.674;2022-11-02T19:43:24;9.90;92.70
21770;DHT22;11046;49.558;8.674;2022-11-02T19:46:26;10.00;92.60
21770;DHT22;11046;49.558;8.674;2022-11-02T19:49:26;10.00;92.60
21770;DHT22;11046;49.558;8.674;2022-11-02T19:52:27;10.00;92.60
21770;DHT22;11046;49.558;8.674;2022-11-02T19:55:27;10.00;92.60
21770;DHT22;11046;49.558;8.674;2022-11-02T19:58:29;9.90;92.60
21770;DHT22;11046;49.558;8.674;2022-11-02T20:01:40;9.90;92.60
21770;DHT22;11046;49.558;8.674;2022-11-02T20:04:41;9.80;92.60
21770;DHT22;11046;49.558;8.674;2022-11-02T20:07:43;9.70;92.60
21770;DHT22;11046;49.558;8.674;2022-11-02T20:10:44;9.60;92.70
21770;DHT22;11046;49.558;8.674;2022-11-02T20:13:46;9.70;92.90
21770;DHT22;11046;49.558;8.674;2022-11-02T20:16:46;9.70;92.90
21770;DHT22;11046;49.558;8.674;2022-11-02T20:19:47;9.70;92.90
21770;DHT22;11046;49.558;8.674;2022-11-02T20:22:49;9.60;92.80
21770;DHT22;11046;49.558;8.674;2022-11-02T20:25:50;9.50;92.80
21770;DHT22;11046;49.558;8.674;2022-11-02T20:28:50;9.50;92.90
21770;DHT22;11046;49.558;8.674;2022-11-02T20:31:51;9.30;93.20
21770;DHT22;11046;49.558;8.674;2022-11-02T20:34:52;9.30;92.90
21770;DHT22;11046;49.558;8.674;2022-11-02T20:37:52;9.20;93.00
21770;DHT22;11046;49.558;8.674;2022-11-02T20:40:53;9.10;93.10
21770;DHT22;11046;49.558;8.674;2022-11-02T20:43:54;9.10;93.20
21770;DHT22;11046;49.558;8.674;2022-11-02T20:46:55;9.00;93.30
21770;DHT22;11046;49.558;8.674;2022-11-02T20:49:55;8.90;93.40
21770;DHT22;11046;49.558;8.674;2022-11-02T20:52:56;8.90;93.50
21770;DHT22;11046;49.558;8.674;2022-11-02T20:55:58;8.90;93.50
21770;DHT22;11046;49.558;8.674;2022-11-02T20:58:58;8.80;93.50
21770;DHT22;11046;49.558;8.674;2022-11-02T21:01:59;8.80;93.60
21770;DHT22;11046;49.558;8.674;2022-11-02T21:05:00;8.80;93.80
21770;DHT22;11046;49.558;8.674;2022-11-02T21:08:00;8.70;93.90
21770;DHT22;11046;49.558;8.674;2022-11-02T21:11:02;8.80;94.10
21770;DHT22;11046;49.558;8.674;2022-11-02T21:14:03;8.90;94.10
21770;DHT22;11046;49.558;8.674;2022-11-02T21:17:04;9.00;94.10
21770;DHT22;11046;49.558;8.674;2022-11-02T21:20:06;9.10;94.30
21770;DHT22;11046;49.558;8.674;2022-11-02T21:23:08;9.30;94.30
21770;DHT22;11046;49.558;8.674;2022-11-02T21:26:11;9.40;94.10
21770;DHT22;11046;49.558;8.674;2022-11-02T21:29:12;9.50;94.10
21770;DHT22;11046;49.558;8.674;2022-11-02T21:32:13;9.60;94.00
21770;DHT22;11046;49.558;8.674;2022-11-02T21:35:13;9.50;93.80
21770;DHT22;11046;49.558;8.674;2022-11-02T21:38:14;9.40;94.00